createdAt,value
2019-05-14T00:02:22.822Z,7.00
2019-05-14T00:04:53.173Z,6.90
2019-05-14T00:07:23.237Z,7.00
2019-05-14T00:09:53.395Z,7.00
2019-05-14T00:12:23.536Z,6.90
2019-05-14T00:14:53.817Z,6.90
2019-05-14T00:17:23.937Z,6.90
2019-05-14T00:20:06.522Z,6.90
2019-05-14T00:22:26.066Z,6.90
2019-05-14T00:24:57.091Z,6.90
2019-05-14T00:27:27.385Z,6.80
2019-05-14T00:29:57.673Z,6.90
2019-05-14T00:32:27.927Z,6.90
2019-05-14T00:34:58.142Z,6.80
2019-05-14T00:37:28.331Z,6.90
2019-05-14T00:39:58.454Z,6.90
2019-05-14T00:42:28.679Z,6.80
2019-05-14T00:45:01.047Z,6.80
2019-05-14T00:47:30.987Z,6.80
2019-05-14T00:50:02.186Z,6.80
2019-05-14T00:52:32.484Z,6.80
2019-05-14T00:55:02.645Z,6.80
2019-05-14T00:57:32.773Z,6.80
2019-05-14T01:00:03.032Z,6.80
2019-05-14T01:02:33.303Z,6.90
2019-05-14T01:05:03.902Z,6.80
2019-05-14T01:07:34.063Z,6.80
2019-05-14T01:10:04.745Z,6.70
2019-05-14T01:12:34.922Z,6.80
2019-05-14T01:15:10.166Z,6.80
2019-05-14T01:17:37.449Z,6.80
2019-05-14T01:20:08.091Z,6.70
2019-05-14T01:22:38.231Z,6.70
2019-05-14T01:25:08.614Z,6.70
2019-05-14T01:27:41.118Z,6.70
2019-05-14T01:30:12.441Z,6.60
2019-05-14T01:32:42.930Z,6.70
2019-05-14T01:35:13.150Z,6.70
2019-05-14T01:37:43.262Z,6.70
2019-05-14T01:40:13.692Z,6.70
2019-05-14T01:42:44.723Z,6.60
2019-05-14T01:45:25.090Z,6.60
2019-05-14T01:47:46.757Z,6.60
2019-05-14T01:50:16.872Z,6.50
2019-05-14T01:52:47.055Z,6.60
2019-05-14T01:55:17.290Z,6.60
2019-05-14T01:57:47.346Z,6.60
2019-05-14T02:00:17.758Z,6.50
2019-05-14T02:02:47.892Z,6.50
2019-05-14T02:05:17.967Z,6.60
2019-05-14T02:07:48.074Z,6.50
2019-05-14T02:10:18.222Z,6.50
2019-05-14T02:12:48.405Z,6.50
2019-05-14T02:15:21.248Z,6.50
2019-05-14T02:17:51.849Z,6.50
2019-05-14T02:20:22.190Z,6.50
2019-05-14T02:22:52.549Z,6.40
2019-05-14T02:25:22.829Z,6.40
2019-05-14T02:27:53.013Z,6.30
2019-05-14T02:30:41.382Z,6.30
2019-05-14T02:32:59.598Z,6.30
2019-05-14T02:35:30.077Z,6.30
2019-05-14T02:38:00.402Z,6.30
2019-05-14T02:40:30.553Z,6.20
2019-05-14T02:43:00.750Z,6.20
2019-05-14T02:45:30.843Z,6.30
2019-05-14T02:48:00.933Z,6.30
2019-05-14T02:50:31.033Z,6.30
2019-05-14T02:53:01.174Z,6.30
2019-05-14T02:55:31.395Z,6.20
2019-05-14T02:58:01.639Z,6.20
2019-05-14T03:00:31.882Z,6.20
2019-05-14T03:03:02.119Z,6.20
2019-05-14T03:05:32.335Z,6.20
2019-05-14T03:08:02.370Z,6.10
2019-05-14T03:10:32.570Z,6.20
2019-05-14T03:13:02.663Z,6.20
2019-05-14T03:15:32.772Z,6.20
2019-05-14T03:18:02.978Z,6.20
2019-05-14T03:20:33.104Z,6.20
2019-05-14T03:23:09.036Z,6.30
2019-05-14T03:25:35.083Z,6.20
2019-05-14T03:28:05.226Z,6.20
2019-05-14T03:30:35.564Z,6.20
2019-05-14T03:33:05.844Z,6.20
2019-05-14T03:35:44.289Z,6.20
2019-05-14T03:38:09.434Z,6.20
2019-05-14T03:40:40.199Z,6.30
2019-05-14T03:43:10.535Z,6.20
2019-05-14T03:45:40.711Z,6.30
2019-05-14T03:48:10.934Z,6.30
2019-05-14T03:50:41.092Z,6.30
2019-05-14T03:53:12.829Z,6.30
2019-05-14T03:55:44.282Z,6.30
2019-05-14T03:58:14.543Z,6.40
2019-05-14T04:00:50.951Z,6.40
2019-05-14T04:03:21.996Z,6.50
2019-05-14T04:05:52.927Z,6.50
2019-05-14T04:08:29.053Z,6.50
2019-05-14T04:10:59.283Z,6.40
2019-05-14T04:13:31.042Z,6.40
2019-05-14T04:16:03.309Z,6.40
2019-05-14T04:18:40.195Z,6.40
2019-05-14T04:21:10.356Z,6.40
2019-05-14T04:23:44.295Z,6.40
2019-05-14T04:26:19.821Z,6.40
2019-05-14T04:28:50.501Z,6.50
2019-05-14T04:31:21.200Z,6.50
2019-05-14T04:33:52.238Z,6.50
2019-05-14T04:36:22.629Z,6.60
2019-05-14T04:38:55.249Z,6.60
2019-05-14T04:41:25.610Z,6.70
2019-05-14T04:43:59.199Z,6.70
2019-05-14T04:46:30.204Z,6.70
2019-05-14T04:49:00.881Z,6.70
2019-05-14T04:51:31.149Z,6.70
2019-05-14T04:54:01.340Z,6.50
2019-05-14T04:56:31.478Z,6.60
2019-05-14T04:59:02.706Z,6.60
2019-05-14T05:01:32.970Z,6.60
2019-05-14T05:04:03.126Z,6.70
2019-05-14T05:06:33.181Z,6.70
2019-05-14T05:09:04.784Z,6.60
2019-05-14T05:11:34.929Z,6.60
2019-05-14T05:14:05.418Z,6.60
2019-05-14T05:16:35.519Z,6.70
2019-05-14T05:19:05.594Z,6.70
2019-05-14T05:21:35.717Z,6.70
2019-05-14T05:24:05.758Z,6.70
2019-05-14T05:26:35.947Z,6.80
2019-05-14T05:29:09.632Z,6.70
2019-05-14T05:31:38.252Z,6.80
2019-05-14T05:34:09.058Z,6.80
2019-05-14T05:36:39.390Z,6.90
2019-05-14T05:39:09.614Z,6.80
2019-05-14T05:41:39.806Z,6.90
2019-05-14T05:44:09.989Z,6.90
2019-05-14T05:46:43.124Z,7.00
2019-05-14T05:49:11.972Z,6.90
2019-05-14T05:51:42.025Z,7.00
2019-05-14T05:54:12.212Z,7.00
2019-05-14T05:56:42.326Z,6.90
2019-05-14T05:59:12.387Z,7.00
2019-05-14T06:01:46.481Z,7.10
2019-05-14T06:04:14.766Z,7.20
2019-05-14T06:06:44.902Z,7.20
2019-05-14T06:09:14.954Z,7.20
2019-05-14T06:11:45.065Z,7.30
2019-05-14T06:14:15.242Z,7.30
2019-05-14T06:16:45.472Z,7.30
2019-05-14T06:19:15.593Z,7.20
2019-05-14T06:21:49.276Z,7.30
2019-05-14T06:24:19.512Z,7.20
2019-05-14T06:26:49.845Z,7.30
2019-05-14T06:29:20.040Z,7.40
2019-05-14T06:31:50.217Z,7.50
2019-05-14T06:34:20.432Z,7.50
2019-05-14T06:36:50.647Z,7.50
2019-05-14T06:39:20.815Z,7.60
2019-05-14T06:41:50.966Z,7.70
2019-05-14T06:44:21.172Z,7.60
2019-05-14T06:46:52.913Z,7.60
2019-05-14T06:49:23.264Z,7.80
2019-05-14T06:51:53.522Z,7.60
2019-05-14T06:54:23.677Z,7.70
2019-05-14T06:56:53.794Z,7.80
2019-05-14T06:59:23.907Z,7.80
2019-05-14T07:01:54.136Z,7.70
2019-05-14T07:04:24.364Z,7.70
2019-05-14T07:06:54.506Z,7.80
2019-05-14T07:09:25.580Z,7.90
2019-05-14T07:11:58.301Z,7.70
2019-05-14T07:14:28.236Z,7.70
2019-05-14T07:16:59.037Z,7.70
2019-05-14T07:19:29.662Z,7.70
2019-05-14T07:22:00.086Z,7.70
2019-05-14T07:24:30.352Z,7.70
2019-05-14T07:27:00.486Z,7.80
2019-05-14T07:29:30.602Z,7.90
2019-05-14T07:32:00.744Z,8.00
2019-05-14T07:34:30.943Z,8.00
2019-05-14T07:37:01.006Z,8.00
2019-05-14T07:39:31.230Z,7.90
2019-05-14T07:42:01.289Z,8.00
2019-05-14T07:44:31.458Z,7.90
2019-05-14T07:47:01.646Z,8.10
2019-05-14T07:49:31.777Z,8.10
2019-05-14T07:52:01.902Z,8.20
2019-05-14T07:54:32.050Z,8.40
2019-05-14T07:57:02.214Z,8.40
2019-05-14T07:59:32.327Z,8.40
2019-05-14T08:02:02.459Z,8.50
2019-05-14T08:04:32.573Z,8.50
2019-05-14T08:07:02.608Z,8.50
2019-05-14T08:09:32.758Z,8.30
2019-05-14T08:12:02.880Z,8.20
2019-05-14T08:14:41.895Z,8.20
2019-05-14T08:17:04.750Z,8.20
2019-05-14T08:19:34.886Z,8.20
2019-05-14T08:22:05.131Z,8.30
2019-05-14T08:24:35.291Z,8.30
2019-05-14T08:27:05.394Z,8.40
2019-05-14T08:29:37.514Z,8.40
2019-05-14T08:32:08.778Z,8.40
2019-05-14T08:34:39.294Z,8.50
2019-05-14T08:37:09.603Z,8.40
2019-05-14T08:39:39.736Z,8.40
2019-05-14T08:42:09.971Z,8.50
2019-05-14T08:44:40.149Z,8.50
2019-05-14T08:47:10.348Z,8.60
2019-05-14T08:49:46.301Z,8.50
2019-05-14T08:52:15.876Z,8.60
2019-05-14T08:54:44.246Z,8.60
2019-05-14T08:57:14.483Z,8.60
2019-05-14T08:59:44.640Z,8.60
2019-05-14T09:02:14.763Z,8.60
2019-05-14T09:04:44.961Z,8.50
2019-05-14T09:07:15.138Z,8.60
2019-05-14T09:09:48.639Z,8.80
2019-05-14T09:12:18.821Z,8.60
2019-05-14T09:14:49.127Z,8.50
2019-05-14T09:17:19.263Z,8.20
2019-05-14T09:20:02.156Z,8.10
2019-05-14T09:22:21.086Z,8.00
2019-05-14T09:24:51.259Z,7.90
2019-05-14T09:27:21.380Z,8.00
2019-05-14T09:29:51.483Z,8.10
2019-05-14T09:32:22.766Z,8.10
2019-05-14T09:34:52.802Z,8.20
2019-05-14T09:37:22.922Z,8.30
2019-05-14T09:39:53.115Z,8.40
2019-05-14T09:42:23.306Z,8.50
2019-05-14T09:44:53.427Z,8.50
2019-05-14T09:47:24.142Z,8.60
2019-05-14T09:49:54.414Z,8.50
2019-05-14T09:52:24.579Z,8.60
2019-05-14T09:54:54.661Z,8.60
2019-05-14T09:57:24.826Z,8.70
2019-05-14T09:59:54.958Z,8.70
2019-05-14T10:02:25.144Z,8.70
2019-05-14T10:04:55.277Z,8.80
2019-05-14T10:07:25.318Z,8.60
2019-05-14T10:09:55.470Z,8.40
2019-05-14T10:12:25.601Z,8.30
2019-05-14T10:14:55.793Z,8.20
2019-05-14T10:17:25.836Z,8.20
2019-05-14T10:19:55.961Z,8.10
2019-05-14T10:22:28.434Z,8.10
2019-05-14T10:24:58.270Z,8.10
2019-05-14T10:27:28.540Z,7.90
2019-05-14T10:29:58.963Z,7.90
2019-05-14T10:32:30.171Z,8.00
2019-05-14T10:35:00.279Z,8.00
2019-05-14T10:37:30.520Z,8.10
2019-05-14T10:40:00.560Z,8.10
2019-05-14T10:42:30.625Z,8.20
2019-05-14T10:45:00.854Z,8.10
2019-05-14T10:47:31.058Z,8.10
2019-05-14T10:50:01.164Z,8.40
2019-05-14T10:52:31.217Z,8.60
2019-05-14T10:55:01.404Z,8.50
2019-05-14T10:57:31.682Z,8.50
2019-05-14T11:00:01.775Z,8.50
2019-05-14T11:02:32.439Z,8.60
2019-05-14T11:05:02.669Z,8.60
2019-05-14T11:07:32.848Z,8.70
2019-05-14T11:10:02.896Z,8.80
2019-05-14T11:12:34.181Z,8.90
2019-05-14T11:15:04.648Z,8.80
2019-05-14T11:17:34.859Z,8.90
2019-05-14T11:20:05.240Z,8.60
2019-05-14T11:22:35.364Z,8.50
2019-05-14T11:25:08.941Z,8.30
2019-05-14T11:27:38.906Z,8.10
2019-05-14T11:30:09.944Z,8.10
2019-05-14T11:32:40.046Z,8.10
2019-05-14T11:35:12.746Z,8.20
2019-05-14T11:37:42.598Z,8.20
2019-05-14T11:40:12.959Z,8.20
2019-05-14T11:42:43.090Z,8.20
2019-05-14T11:45:14.052Z,8.10
2019-05-14T11:47:45.223Z,8.00
2019-05-14T11:50:15.446Z,8.10
2019-05-14T11:52:45.542Z,8.10
2019-05-14T11:55:27.587Z,8.10
2019-05-14T11:57:58.247Z,8.30
2019-05-14T12:00:29.697Z,8.30
2019-05-14T12:02:59.992Z,8.40
2019-05-14T12:05:30.598Z,8.30
2019-05-14T12:08:00.788Z,8.30
2019-05-14T12:10:31.637Z,8.30
2019-05-14T12:13:01.814Z,8.30
2019-05-14T12:15:31.902Z,8.40
2019-05-14T12:18:02.089Z,8.40
2019-05-14T12:20:32.216Z,8.40
2019-05-14T12:23:02.336Z,8.50
2019-05-14T12:25:32.526Z,8.50
2019-05-14T12:28:02.859Z,8.50
2019-05-14T12:30:32.970Z,8.20
2019-05-14T12:33:03.282Z,8.00
2019-05-14T12:35:33.403Z,8.00
2019-05-14T12:38:03.535Z,8.00
2019-05-14T12:40:33.611Z,8.10
2019-05-14T12:43:03.649Z,8.10
2019-05-14T12:45:33.798Z,8.00
2019-05-14T12:48:03.938Z,8.10
2019-05-14T12:50:35.011Z,7.90
2019-05-14T12:53:05.206Z,7.90
2019-05-14T12:55:35.366Z,8.10
2019-05-14T12:58:05.486Z,8.00
2019-05-14T13:00:35.561Z,8.00
2019-05-14T13:03:05.762Z,8.10
2019-05-14T13:05:35.898Z,8.00
2019-05-14T13:08:05.972Z,8.00
2019-05-14T13:10:38.431Z,8.00
2019-05-14T13:13:08.542Z,7.90
2019-05-14T13:15:39.473Z,7.90
2019-05-14T13:18:09.614Z,8.00
2019-05-14T13:20:39.690Z,7.90
2019-05-14T13:23:10.189Z,7.80
2019-05-14T13:25:40.398Z,7.80
2019-05-14T13:28:10.610Z,7.80
2019-05-14T13:30:40.723Z,7.90
2019-05-14T13:33:10.784Z,7.80
2019-05-14T13:35:40.921Z,7.80
2019-05-14T13:38:14.311Z,7.80
2019-05-14T13:40:42.949Z,7.80
2019-05-14T13:43:14.542Z,7.80
2019-05-14T13:45:45.157Z,7.80
2019-05-14T13:48:15.277Z,7.80
2019-05-14T13:50:45.488Z,7.70
2019-05-14T13:53:15.751Z,7.70
2019-05-14T13:55:50.685Z,7.60
2019-05-14T13:58:20.881Z,7.70
2019-05-14T14:00:52.052Z,7.70
2019-05-14T14:03:21.310Z,7.70
2019-05-14T14:05:51.609Z,7.70
2019-05-14T14:08:21.719Z,7.70
2019-05-14T14:10:53.908Z,7.70
2019-05-14T14:13:23.773Z,7.70
2019-05-14T14:15:53.875Z,7.70
2019-05-14T14:18:26.340Z,7.70
2019-05-14T14:20:55.754Z,7.80
2019-05-14T14:23:30.750Z,7.70
2019-05-14T14:25:59.578Z,7.80
2019-05-14T14:28:29.592Z,7.80
2019-05-14T14:30:59.778Z,7.80
2019-05-14T14:33:29.967Z,7.70
2019-05-14T14:36:00.154Z,7.80
2019-05-14T14:38:30.193Z,7.70
2019-05-14T14:41:00.234Z,7.70
2019-05-14T14:43:30.492Z,7.70
2019-05-14T14:46:00.559Z,7.70
2019-05-14T14:48:30.773Z,7.70
2019-05-14T14:51:01.061Z,7.70
2019-05-14T14:53:46.135Z,7.70
2019-05-14T14:56:03.021Z,7.70
2019-05-14T14:58:33.297Z,7.70
2019-05-14T15:01:03.424Z,7.70
2019-05-14T15:03:33.618Z,7.70
2019-05-14T15:06:03.681Z,7.70
2019-05-14T15:08:33.818Z,7.70
2019-05-14T15:11:04.019Z,7.80
2019-05-14T15:13:34.064Z,7.80
2019-05-14T15:16:04.269Z,7.80
2019-05-14T15:18:34.459Z,7.80
2019-05-14T15:21:04.624Z,7.80
2019-05-14T15:23:38.964Z,7.80
2019-05-14T15:26:11.493Z,7.80
2019-05-14T15:28:38.751Z,7.80
2019-05-14T15:31:09.115Z,7.90
2019-05-14T15:33:39.377Z,7.90
2019-05-14T15:36:09.642Z,7.90
2019-05-14T15:38:39.985Z,7.90
2019-05-14T15:41:13.413Z,7.90
2019-05-14T15:43:42.083Z,7.90
2019-05-14T15:46:12.907Z,7.90
2019-05-14T15:48:48.877Z,7.80
2019-05-14T15:51:19.792Z,7.90
2019-05-14T15:54:05.478Z,7.90
2019-05-14T15:56:29.647Z,7.90
2019-05-14T15:59:01.134Z,7.90
2019-05-14T16:01:30.288Z,7.90
2019-05-14T16:04:05.245Z,7.90
2019-05-14T16:06:38.627Z,7.90
2019-05-14T16:09:13.717Z,7.80
2019-05-14T16:11:48.283Z,7.90
2019-05-14T16:14:20.370Z,7.90
2019-05-14T16:16:50.807Z,7.90
2019-05-14T16:19:22.002Z,8.00
2019-05-14T16:21:53.558Z,8.00
2019-05-14T16:24:23.670Z,8.00
2019-05-14T16:26:53.884Z,8.00
2019-05-14T16:29:36.864Z,7.90
2019-05-14T16:31:58.209Z,7.90
2019-05-14T16:34:28.778Z,7.90
2019-05-14T16:36:59.076Z,7.90
2019-05-14T16:39:29.367Z,7.90
2019-05-14T16:41:59.545Z,7.90
2019-05-14T16:44:29.718Z,7.90
2019-05-14T16:46:59.764Z,7.80
2019-05-14T16:49:30.166Z,7.80
2019-05-14T16:52:01.764Z,7.80
2019-05-14T16:54:31.958Z,7.80
2019-05-14T16:57:02.117Z,7.80
2019-05-14T16:59:32.349Z,7.80
2019-05-14T17:02:02.599Z,7.80
2019-05-14T17:04:32.660Z,7.70
2019-05-14T17:07:04.160Z,7.90
2019-05-14T17:09:34.241Z,7.80
2019-05-14T17:12:04.294Z,7.90
2019-05-14T17:14:34.440Z,7.80
2019-05-14T17:17:05.709Z,7.80
2019-05-14T17:19:35.878Z,7.80
2019-05-14T17:22:21.332Z,7.90
2019-05-14T17:24:39.863Z,7.90
2019-05-14T17:27:09.699Z,7.90
2019-05-14T17:29:39.826Z,7.90
2019-05-14T17:32:10.013Z,7.90
2019-05-14T17:34:40.119Z,7.90
2019-05-14T17:37:10.336Z,7.90
2019-05-14T17:39:40.486Z,7.90
2019-05-14T17:42:11.665Z,7.90
2019-05-14T17:44:42.243Z,7.90
2019-05-14T17:47:12.401Z,8.00
2019-05-14T17:49:42.651Z,8.00
2019-05-14T17:52:12.852Z,8.00
2019-05-14T17:54:43.131Z,8.00
2019-05-14T17:57:13.208Z,7.90
2019-05-14T17:59:43.430Z,7.90
2019-05-14T18:02:13.559Z,7.90
2019-05-14T18:04:43.718Z,7.90
2019-05-14T18:07:13.898Z,7.90
2019-05-14T18:09:44.104Z,8.00
2019-05-14T18:12:14.913Z,7.90
2019-05-14T18:14:48.072Z,7.90
2019-05-14T18:17:18.842Z,7.90
2019-05-14T18:19:49.587Z,7.90
2019-05-14T18:22:19.755Z,8.00
2019-05-14T18:24:49.951Z,8.00
2019-05-14T18:27:20.198Z,7.90
2019-05-14T18:29:50.327Z,8.00
2019-05-14T18:32:21.596Z,8.00
2019-05-14T18:34:51.847Z,8.00
2019-05-14T18:37:22.032Z,8.00
2019-05-14T18:39:52.231Z,8.00
2019-05-14T18:42:22.439Z,8.00
2019-05-14T18:44:52.570Z,8.10
2019-05-14T18:47:22.770Z,8.00
2019-05-14T18:49:52.843Z,8.00
2019-05-14T18:52:23.036Z,8.00
2019-05-14T18:54:53.326Z,8.10
2019-05-14T18:57:23.662Z,8.10
2019-05-14T18:59:54.238Z,8.10
2019-05-14T19:02:29.312Z,8.10
2019-05-14T19:04:59.352Z,8.00
2019-05-14T19:07:29.801Z,8.00
2019-05-14T19:09:59.938Z,8.00
2019-05-14T19:12:33.047Z,8.00
2019-05-14T19:15:03.264Z,8.10
2019-05-14T19:17:34.869Z,8.10
2019-05-14T19:20:05.123Z,8.10
2019-05-14T19:22:35.274Z,8.10
2019-05-14T19:25:05.533Z,8.10
2019-05-14T19:27:37.828Z,8.10
2019-05-14T19:30:08.617Z,8.10
2019-05-14T19:32:39.512Z,8.10
2019-05-14T19:35:10.242Z,8.10
2019-05-14T19:37:40.394Z,8.10
2019-05-14T19:40:10.951Z,8.10
2019-05-14T19:42:41.162Z,8.20
2019-05-14T19:45:11.563Z,8.20
2019-05-14T19:47:41.689Z,8.20
2019-05-14T19:50:12.101Z,8.30
2019-05-14T19:52:42.494Z,8.20
2019-05-14T19:55:12.827Z,8.10
2019-05-14T19:57:43.574Z,8.10
2019-05-14T20:00:14.128Z,8.10
2019-05-14T20:02:44.427Z,8.10
2019-05-14T20:05:18.974Z,8.20
2019-05-14T20:07:49.091Z,8.10
2019-05-14T20:10:19.573Z,8.10
2019-05-14T20:12:49.653Z,8.20
2019-05-14T20:15:19.819Z,8.10
2019-05-14T20:17:50.437Z,8.20
2019-05-14T20:20:20.615Z,8.30
2019-05-14T20:22:50.886Z,8.20
2019-05-14T20:25:21.680Z,8.20
2019-05-14T20:27:52.024Z,8.20
2019-05-14T20:30:22.386Z,8.30
2019-05-14T20:32:52.712Z,8.30
2019-05-14T20:35:31.758Z,8.20
2019-05-14T20:37:54.790Z,8.20
2019-05-14T20:40:24.936Z,8.20
2019-05-14T20:42:58.619Z,8.20
2019-05-14T20:45:28.932Z,8.20
2019-05-14T20:47:59.486Z,8.20
2019-05-14T20:50:29.607Z,8.20
2019-05-14T20:52:59.725Z,8.20
2019-05-14T20:55:29.888Z,8.20
2019-05-14T20:58:01.535Z,8.20
2019-05-14T21:00:31.746Z,8.20
2019-05-14T21:03:01.897Z,8.20
2019-05-14T21:05:32.065Z,8.20
2019-05-14T21:08:02.284Z,8.20
2019-05-14T21:10:32.494Z,8.20
2019-05-14T21:13:02.734Z,8.20
2019-05-14T21:15:32.971Z,8.30
2019-05-14T21:18:03.154Z,8.30
2019-05-14T21:20:33.457Z,8.20
2019-05-14T21:23:03.604Z,8.20
2019-05-14T21:25:33.806Z,8.20
2019-05-14T21:28:03.920Z,8.20
2019-05-14T21:30:35.330Z,8.20
2019-05-14T21:33:08.305Z,8.20
2019-05-14T21:35:39.048Z,8.30
2019-05-14T21:38:09.486Z,8.30
2019-05-14T21:40:39.727Z,8.30
2019-05-14T21:43:11.358Z,8.30
2019-05-14T21:45:41.603Z,8.30
2019-05-14T21:48:11.854Z,8.30
2019-05-14T21:50:42.063Z,8.30
2019-05-14T21:53:12.205Z,8.30
2019-05-14T21:55:42.651Z,8.30
2019-05-14T21:58:12.858Z,8.30
2019-05-14T22:00:48.584Z,8.30
2019-05-14T22:03:20.839Z,8.40
2019-05-14T22:05:51.879Z,8.40
2019-05-14T22:08:22.105Z,8.40
2019-05-14T22:10:52.229Z,8.40
2019-05-14T22:13:23.317Z,8.40
2019-05-14T22:15:53.632Z,8.30
2019-05-14T22:18:23.762Z,8.30
2019-05-14T22:20:55.019Z,8.30
2019-05-14T22:23:25.132Z,8.30
2019-05-14T22:25:55.310Z,8.30
2019-05-14T22:28:25.562Z,8.30
2019-05-14T22:30:55.739Z,8.30
2019-05-14T22:33:28.302Z,8.30
2019-05-14T22:35:58.108Z,8.30
2019-05-14T22:38:29.389Z,8.40
2019-05-14T22:40:59.791Z,8.40
2019-05-14T22:43:29.910Z,8.40
2019-05-14T22:46:00.030Z,8.40
2019-05-14T22:48:30.369Z,8.40
2019-05-14T22:51:00.549Z,8.40
2019-05-14T22:53:32.498Z,8.40
2019-05-14T22:56:02.670Z,8.40
2019-05-14T22:58:32.718Z,8.40
2019-05-14T23:01:14.264Z,8.40
2019-05-14T23:03:34.831Z,8.40
2019-05-14T23:06:04.994Z,8.40
2019-05-14T23:08:35.041Z,8.40
2019-05-14T23:11:05.176Z,8.40
2019-05-14T23:13:36.311Z,8.50
2019-05-14T23:16:08.254Z,8.40
2019-05-14T23:18:38.268Z,8.50
2019-05-14T23:21:09.120Z,8.50
2019-05-14T23:23:39.474Z,8.50
2019-05-14T23:26:09.602Z,8.50
2019-05-14T23:28:45.454Z,8.50
2019-05-14T23:31:11.585Z,8.50
2019-05-14T23:33:41.715Z,8.60
2019-05-14T23:36:11.999Z,8.60
2019-05-14T23:38:42.141Z,8.60
2019-05-14T23:41:12.279Z,8.60
2019-05-14T23:43:42.406Z,8.60
2019-05-14T23:46:12.542Z,8.60
2019-05-14T23:48:42.786Z,8.60
2019-05-14T23:51:12.886Z,8.60
2019-05-14T23:53:43.022Z,8.60
2019-05-14T23:56:13.159Z,8.60
2019-05-14T23:58:54.879Z,8.60
